sensor_id;sensor_type;location;lat;lon;timestamp;temperature;humidity
12839;DHT22;6486;51.034;5.262;2022-08-21T00:01:33;18.30;63.60
12839;DHT22;6486;51.034;5.262;2022-08-21T00:04:05;18.30;63.80
12839;DHT22;6486;51.034;5.262;2022-08-21T00:06:31;18.30;63.90
12839;DHT22;6486;51.034;5.262;2022-08-21T00:08:58;18.30;63.90
12839;DHT22;6486;51.034;5.262;2022-08-21T00:11:23;18.20;63.80
12839;DHT22;6486;51.034;5.262;2022-08-21T00:13:49;18.20;64.00
12839;DHT22;6486;51.034;5.262;2022-08-21T00:16:14;18.20;64.00
12839;DHT22;6486;51.034;5.262;2022-08-21T00:18:40;18.20;64.10
12839;DHT22;6486;51.034;5.262;2022-08-21T00:21:06;18.20;64.00
12839;DHT22;6486;51.034;5.262;2022-08-21T00:23:34;18.10;64.00
12839;DHT22;6486;51.034;5.262;2022-08-21T00:25:59;18.10;63.90
12839;DHT22;6486;51.034;5.262;2022-08-21T00:28:25;18.10;64.00
12839;DHT22;6486;51.034;5.262;2022-08-21T00:30:51;18.10;63.80
12839;DHT22;6486;51.034;5.262;2022-08-21T00:33:16;18.10;64.00
12839;DHT22;6486;51.034;5.262;2022-08-21T00:35:43;18.00;63.90
12839;DHT22;6486;51.034;5.262;2022-08-21T00:38:09;18.00;64.00
12839;DHT22;6486;51.034;5.262;2022-08-21T00:40:44;18.00;64.10
12839;DHT22;6486;51.034;5.262;2022-08-21T00:43:15;18.00;64.20
12839;DHT22;6486;51.034;5.262;2022-08-21T00:45:43;17.90;64.30
12839;DHT22;6486;51.034;5.262;2022-08-21T00:48:09;17.90;64.20
12839;DHT22;6486;51.034;5.262;2022-08-21T00:50:40;17.90;64.20
12839;DHT22;6486;51.034;5.262;2022-08-21T00:53:08;17.80;64.30
12839;DHT22;6486;51.034;5.262;2022-08-21T00:55:36;17.80;64.50
12839;DHT22;6486;51.034;5.262;2022-08-21T00:58:04;17.80;64.50
12839;DHT22;6486;51.034;5.262;2022-08-21T01:00:35;17.80;64.60
12839;DHT22;6486;51.034;5.262;2022-08-21T01:03:04;17.70;64.70
12839;DHT22;6486;51.034;5.262;2022-08-21T01:05:32;17.70;64.60
12839;DHT22;6486;51.034;5.262;2022-08-21T01:07:57;17.70;64.60
12839;DHT22;6486;51.034;5.262;2022-08-21T01:10:23;17.70;64.60
12839;DHT22;6486;51.034;5.262;2022-08-21T01:12:53;17.70;64.60
12839;DHT22;6486;51.034;5.262;2022-08-21T01:15:21;17.70;64.70
12839;DHT22;6486;51.034;5.262;2022-08-21T01:17:49;17.60;65.40
12839;DHT22;6486;51.034;5.262;2022-08-21T01:20:14;17.60;64.80
12839;DHT22;6486;51.034;5.262;2022-08-21T01:22:41;17.60;65.00
12839;DHT22;6486;51.034;5.262;2022-08-21T01:25:11;17.50;64.80
12839;DHT22;6486;51.034;5.262;2022-08-21T01:27:37;17.50;64.90
12839;DHT22;6486;51.034;5.262;2022-08-21T01:30:19;17.50;65.00
12839;DHT22;6486;51.034;5.262;2022-08-21T01:32:46;17.50;65.10
12839;DHT22;6486;51.034;5.262;2022-08-21T01:35:13;17.50;65.10
12839;DHT22;6486;51.034;5.262;2022-08-21T01:37:41;17.50;65.20
12839;DHT22;6486;51.034;5.262;2022-08-21T01:40:08;17.50;65.10
12839;DHT22;6486;51.034;5.262;2022-08-21T01:42:34;17.50;65.20
12839;DHT22;6486;51.034;5.262;2022-08-21T01:45:00;17.50;65.20
12839;DHT22;6486;51.034;5.262;2022-08-21T01:47:26;17.50;65.30
12839;DHT22;6486;51.034;5.262;2022-08-21T01:49:52;17.50;65.30
12839;DHT22;6486;51.034;5.262;2022-08-21T01:52:18;17.50;65.30
12839;DHT22;6486;51.034;5.262;2022-08-21T01:54:44;17.40;65.30
12839;DHT22;6486;51.034;5.262;2022-08-21T01:57:12;17.40;65.30
12839;DHT22;6486;51.034;5.262;2022-08-21T01:59:39;17.40;65.40
12839;DHT22;6486;51.034;5.262;2022-08-21T02:02:05;17.30;65.40
12839;DHT22;6486;51.034;5.262;2022-08-21T02:04:32;17.40;65.50
12839;DHT22;6486;51.034;5.262;2022-08-21T02:06:58;17.30;65.40
12839;DHT22;6486;51.034;5.262;2022-08-21T02:09:24;17.30;65.50
12839;DHT22;6486;51.034;5.262;2022-08-21T02:11:50;17.30;65.60
12839;DHT22;6486;51.034;5.262;2022-08-21T02:14:16;17.30;65.50
12839;DHT22;6486;51.034;5.262;2022-08-21T02:16:44;17.30;65.50
12839;DHT22;6486;51.034;5.262;2022-08-21T02:19:11;17.20;65.60
12839;DHT22;6486;51.034;5.262;2022-08-21T02:21:37;17.20;65.60
12839;DHT22;6486;51.034;5.262;2022-08-21T02:24:03;17.20;65.70
12839;DHT22;6486;51.034;5.262;2022-08-21T02:26:29;17.20;65.70
12839;DHT22;6486;51.034;5.262;2022-08-21T02:28:55;17.20;65.70
12839;DHT22;6486;51.034;5.262;2022-08-21T02:31:20;17.10;65.70
12839;DHT22;6486;51.034;5.262;2022-08-21T02:33:46;17.10;65.70
12839;DHT22;6486;51.034;5.262;2022-08-21T02:36:12;17.10;65.70
12839;DHT22;6486;51.034;5.262;2022-08-21T02:38:39;17.00;65.70
12839;DHT22;6486;51.034;5.262;2022-08-21T02:41:08;17.00;65.90
12839;DHT22;6486;51.034;5.262;2022-08-21T02:43:34;17.00;65.90
12839;DHT22;6486;51.034;5.262;2022-08-21T02:46:01;17.00;65.90
12839;DHT22;6486;51.034;5.262;2022-08-21T02:48:29;16.90;65.90
12839;DHT22;6486;51.034;5.262;2022-08-21T02:51:01;16.90;65.90
12839;DHT22;6486;51.034;5.262;2022-08-21T02:53:28;16.90;66.10
12839;DHT22;6486;51.034;5.262;2022-08-21T02:55:57;16.80;66.10
12839;DHT22;6486;51.034;5.262;2022-08-21T02:58:29;16.80;66.20
12839;DHT22;6486;51.034;5.262;2022-08-21T03:00:57;16.80;66.20
12839;DHT22;6486;51.034;5.262;2022-08-21T03:03:24;16.70;66.20
12839;DHT22;6486;51.034;5.262;2022-08-21T03:05:50;16.70;66.40
12839;DHT22;6486;51.034;5.262;2022-08-21T03:08:17;16.70;66.50
12839;DHT22;6486;51.034;5.262;2022-08-21T03:10:47;16.70;66.50
12839;DHT22;6486;51.034;5.262;2022-08-21T03:13:14;16.70;66.50
12839;DHT22;6486;51.034;5.262;2022-08-21T03:15:40;16.70;66.50
12839;DHT22;6486;51.034;5.262;2022-08-21T03:18:07;16.70;66.70
12839;DHT22;6486;51.034;5.262;2022-08-21T03:20:33;16.60;66.60
12839;DHT22;6486;51.034;5.262;2022-08-21T03:23:00;16.60;66.60
12839;DHT22;6486;51.034;5.262;2022-08-21T03:25:27;16.60;66.60
12839;DHT22;6486;51.034;5.262;2022-08-21T03:27:53;16.60;66.60
12839;DHT22;6486;51.034;5.262;2022-08-21T03:30:20;16.60;66.60
12839;DHT22;6486;51.034;5.262;2022-08-21T03:32:49;16.70;66.60
12839;DHT22;6486;51.034;5.262;2022-08-21T03:35:15;16.70;66.60
12839;DHT22;6486;51.034;5.262;2022-08-21T03:37:41;16.70;66.60
12839;DHT22;6486;51.034;5.262;2022-08-21T03:40:09;16.70;66.60
12839;DHT22;6486;51.034;5.262;2022-08-21T03:42:35;16.60;66.50
12839;DHT22;6486;51.034;5.262;2022-08-21T03:45:01;16.60;66.60
12839;DHT22;6486;51.034;5.262;2022-08-21T03:47:27;16.60;66.60
12839;DHT22;6486;51.034;5.262;2022-08-21T03:49:53;16.60;66.60
12839;DHT22;6486;51.034;5.262;2022-08-21T03:52:19;16.60;66.60
12839;DHT22;6486;51.034;5.262;2022-08-21T03:54:45;16.60;66.50
12839;DHT22;6486;51.034;5.262;2022-08-21T03:57:12;16.50;66.50
12839;DHT22;6486;51.034;5.262;2022-08-21T03:59:38;16.50;66.60
12839;DHT22;6486;51.034;5.262;2022-08-21T04:02:06;16.50;66.60
12839;DHT22;6486;51.034;5.262;2022-08-21T04:04:32;16.50;66.60
12839;DHT22;6486;51.034;5.262;2022-08-21T04:06:59;16.40;66.60
12839;DHT22;6486;51.034;5.262;2022-08-21T04:09:25;16.40;66.60
12839;DHT22;6486;51.034;5.262;2022-08-21T04:11:51;16.40;66.60
12839;DHT22;6486;51.034;5.262;2022-08-21T04:14:17;16.40;66.70
12839;DHT22;6486;51.034;5.262;2022-08-21T04:16:44;16.30;66.70
12839;DHT22;6486;51.034;5.262;2022-08-21T04:19:10;16.30;66.80
12839;DHT22;6486;51.034;5.262;2022-08-21T04:21:37;16.30;66.90
12839;DHT22;6486;51.034;5.262;2022-08-21T04:24:05;16.30;66.90
12839;DHT22;6486;51.034;5.262;2022-08-21T04:26:30;16.20;66.80
12839;DHT22;6486;51.034;5.262;2022-08-21T04:28:57;16.30;67.00
12839;DHT22;6486;51.034;5.262;2022-08-21T04:31:24;16.20;66.90
12839;DHT22;6486;51.034;5.262;2022-08-21T04:33:50;16.20;66.80
12839;DHT22;6486;51.034;5.262;2022-08-21T04:36:16;16.10;66.80
12839;DHT22;6486;51.034;5.262;2022-08-21T04:38:42;16.10;66.80
12839;DHT22;6486;51.034;5.262;2022-08-21T04:41:08;16.10;66.80
12839;DHT22;6486;51.034;5.262;2022-08-21T04:43:34;16.10;66.80
12839;DHT22;6486;51.034;5.262;2022-08-21T04:46:00;16.10;66.80
12839;DHT22;6486;51.034;5.262;2022-08-21T04:48:26;16.00;66.80
12839;DHT22;6486;51.034;5.262;2022-08-21T04:56:30;16.00;66.90
12839;DHT22;6486;51.034;5.262;2022-08-21T04:59:00;15.90;66.80
12839;DHT22;6486;51.034;5.262;2022-08-21T05:01:29;15.90;66.80
12839;DHT22;6486;51.034;5.262;2022-08-21T05:03:58;15.90;66.80
12839;DHT22;6486;51.034;5.262;2022-08-21T05:06:25;15.90;66.80
12839;DHT22;6486;51.034;5.262;2022-08-21T05:08:55;15.90;66.90
12839;DHT22;6486;51.034;5.262;2022-08-21T05:11:22;15.90;67.20
12839;DHT22;6486;51.034;5.262;2022-08-21T05:13:48;15.80;66.90
12839;DHT22;6486;51.034;5.262;2022-08-21T05:16:14;15.80;66.90
12839;DHT22;6486;51.034;5.262;2022-08-21T05:18:41;15.80;66.90
12839;DHT22;6486;51.034;5.262;2022-08-21T05:21:07;15.80;67.00
12839;DHT22;6486;51.034;5.262;2022-08-21T05:23:32;15.80;67.00
12839;DHT22;6486;51.034;5.262;2022-08-21T05:25:59;15.80;67.10
12839;DHT22;6486;51.034;5.262;2022-08-21T05:28:24;15.80;67.10
12839;DHT22;6486;51.034;5.262;2022-08-21T05:30:50;15.80;67.10
12839;DHT22;6486;51.034;5.262;2022-08-21T05:33:17;15.90;67.30
12839;DHT22;6486;51.034;5.262;2022-08-21T05:35:43;15.90;67.30
12839;DHT22;6486;51.034;5.262;2022-08-21T05:38:08;15.90;67.30
12839;DHT22;6486;51.034;5.262;2022-08-21T05:40:34;15.90;67.30
12839;DHT22;6486;51.034;5.262;2022-08-21T05:43:00;15.90;67.30
12839;DHT22;6486;51.034;5.262;2022-08-21T05:45:29;15.90;67.40
12839;DHT22;6486;51.034;5.262;2022-08-21T05:47:55;16.00;67.50
12839;DHT22;6486;51.034;5.262;2022-08-21T05:50:20;16.00;67.50
12839;DHT22;6486;51.034;5.262;2022-08-21T05:52:46;16.00;67.60
12839;DHT22;6486;51.034;5.262;2022-08-21T05:55:12;16.10;67.70
12839;DHT22;6486;51.034;5.262;2022-08-21T05:57:38;16.10;67.80
12839;DHT22;6486;51.034;5.262;2022-08-21T06:00:07;16.10;67.90
12839;DHT22;6486;51.034;5.262;2022-08-21T06:02:35;16.10;68.00
12839;DHT22;6486;51.034;5.262;2022-08-21T06:05:01;16.20;68.00
12839;DHT22;6486;51.034;5.262;2022-08-21T06:07:27;16.30;68.00
12839;DHT22;6486;51.034;5.262;2022-08-21T06:09:52;16.40;68.10
12839;DHT22;6486;51.034;5.262;2022-08-21T06:12:18;16.40;68.10
12839;DHT22;6486;51.034;5.262;2022-08-21T06:14:43;16.50;68.20
12839;DHT22;6486;51.034;5.262;2022-08-21T06:17:11;16.60;68.30
12839;DHT22;6486;51.034;5.262;2022-08-21T06:19:38;16.60;68.30
12839;DHT22;6486;51.034;5.262;2022-08-21T06:22:04;16.70;68.50
12839;DHT22;6486;51.034;5.262;2022-08-21T06:24:30;16.80;68.40
12839;DHT22;6486;51.034;5.262;2022-08-21T06:26:56;16.90;69.10
12839;DHT22;6486;51.034;5.262;2022-08-21T06:29:22;17.00;68.30
12839;DHT22;6486;51.034;5.262;2022-08-21T06:31:49;17.10;68.20
12839;DHT22;6486;51.034;5.262;2022-08-21T06:34:15;17.20;68.20
12839;DHT22;6486;51.034;5.262;2022-08-21T06:36:41;17.30;68.00
12839;DHT22;6486;51.034;5.262;2022-08-21T06:39:07;17.40;68.00
12839;DHT22;6486;51.034;5.262;2022-08-21T06:41:33;17.50;67.80
12839;DHT22;6486;51.034;5.262;2022-08-21T06:43:59;17.60;67.70
12839;DHT22;6486;51.034;5.262;2022-08-21T06:46:28;17.70;67.60
12839;DHT22;6486;51.034;5.262;2022-08-21T06:48:54;17.80;67.60
12839;DHT22;6486;51.034;5.262;2022-08-21T06:51:20;17.90;67.50
12839;DHT22;6486;51.034;5.262;2022-08-21T06:53:46;18.00;67.30
12839;DHT22;6486;51.034;5.262;2022-08-21T06:56:12;18.10;67.30
12839;DHT22;6486;51.034;5.262;2022-08-21T06:58:38;18.20;67.20
12839;DHT22;6486;51.034;5.262;2022-08-21T07:01:04;18.40;67.20
12839;DHT22;6486;51.034;5.262;2022-08-21T07:03:34;18.50;67.10
12839;DHT22;6486;51.034;5.262;2022-08-21T07:06:00;18.50;67.00
12839;DHT22;6486;51.034;5.262;2022-08-21T07:08:27;18.60;66.90
12839;DHT22;6486;51.034;5.262;2022-08-21T07:10:56;18.80;67.00
12839;DHT22;6486;51.034;5.262;2022-08-21T07:13:22;18.90;66.80
12839;DHT22;6486;51.034;5.262;2022-08-21T07:15:47;19.00;66.60
12839;DHT22;6486;51.034;5.262;2022-08-21T07:18:13;19.20;66.60
12839;DHT22;6486;51.034;5.262;2022-08-21T07:20:40;19.30;66.50
12839;DHT22;6486;51.034;5.262;2022-08-21T07:23:08;19.40;66.40
12839;DHT22;6486;51.034;5.262;2022-08-21T07:25:34;19.50;66.30
12839;DHT22;6486;51.034;5.262;2022-08-21T07:28:00;19.60;66.30
12839;DHT22;6486;51.034;5.262;2022-08-21T07:30:27;19.70;66.20
12839;DHT22;6486;51.034;5.262;2022-08-21T07:32:52;19.90;66.10
12839;DHT22;6486;51.034;5.262;2022-08-21T07:35:19;20.00;65.90
12839;DHT22;6486;51.034;5.262;2022-08-21T07:37:45;20.10;65.80
12839;DHT22;6486;51.034;5.262;2022-08-21T07:40:11;20.20;65.70
12839;DHT22;6486;51.034;5.262;2022-08-21T07:42:41;20.10;65.60
12839;DHT22;6486;51.034;5.262;2022-08-21T07:45:08;20.10;65.70
12839;DHT22;6486;51.034;5.262;2022-08-21T07:47:33;20.20;65.80
12839;DHT22;6486;51.034;5.262;2022-08-21T07:49:59;20.30;65.60
12839;DHT22;6486;51.034;5.262;2022-08-21T07:52:25;20.50;65.40
12839;DHT22;6486;51.034;5.262;2022-08-21T07:54:50;20.60;65.00
12839;DHT22;6486;51.034;5.262;2022-08-21T07:57:16;20.70;64.80
12839;DHT22;6486;51.034;5.262;2022-08-21T07:59:41;20.80;64.70
12839;DHT22;6486;51.034;5.262;2022-08-21T08:02:07;21.00;64.70
12839;DHT22;6486;51.034;5.262;2022-08-21T08:04:33;21.20;64.50
12839;DHT22;6486;51.034;5.262;2022-08-21T08:06:58;21.40;64.20
12839;DHT22;6486;51.034;5.262;2022-08-21T08:09:24;21.60;63.80
12839;DHT22;6486;51.034;5.262;2022-08-21T08:11:49;21.70;63.60
12839;DHT22;6486;51.034;5.262;2022-08-21T08:14:16;21.80;63.40
12839;DHT22;6486;51.034;5.262;2022-08-21T08:16:42;21.90;63.50
12839;DHT22;6486;51.034;5.262;2022-08-21T08:19:08;22.00;63.30
12839;DHT22;6486;51.034;5.262;2022-08-21T08:21:34;21.90;62.80
12839;DHT22;6486;51.034;5.262;2022-08-21T08:24:00;21.80;63.00
12839;DHT22;6486;51.034;5.262;2022-08-21T08:26:26;21.90;63.00
12839;DHT22;6486;51.034;5.262;2022-08-21T08:28:52;21.90;62.90
12839;DHT22;6486;51.034;5.262;2022-08-21T08:31:17;22.10;62.90
12839;DHT22;6486;51.034;5.262;2022-08-21T08:33:43;22.20;62.60
12839;DHT22;6486;51.034;5.262;2022-08-21T08:36:18;22.30;62.50
12839;DHT22;6486;51.034;5.262;2022-08-21T08:38:44;22.60;62.40
12839;DHT22;6486;51.034;5.262;2022-08-21T08:41:11;22.70;62.00
12839;DHT22;6486;51.034;5.262;2022-08-21T08:43:40;22.80;61.50
12839;DHT22;6486;51.034;5.262;2022-08-21T08:46:12;22.90;61.20
12839;DHT22;6486;51.034;5.262;2022-08-21T08:48:53;23.00;61.10
12839;DHT22;6486;51.034;5.262;2022-08-21T08:51:43;23.20;60.80
12839;DHT22;6486;51.034;5.262;2022-08-21T08:54:17;23.20;60.10
12839;DHT22;6486;51.034;5.262;2022-08-21T08:56:44;23.20;59.90
12839;DHT22;6486;51.034;5.262;2022-08-21T08:59:31;23.20;60.00
12839;DHT22;6486;51.034;5.262;2022-08-21T09:01:58;23.40;59.80
12839;DHT22;6486;51.034;5.262;2022-08-21T09:04:25;23.50;59.30
12839;DHT22;6486;51.034;5.262;2022-08-21T09:09:36;23.60;58.90
12839;DHT22;6486;51.034;5.262;2022-08-21T09:12:12;23.60;59.10
12839;DHT22;6486;51.034;5.262;2022-08-21T09:17:18;23.60;58.70
12839;DHT22;6486;51.034;5.262;2022-08-21T09:25:26;23.80;57.80
12839;DHT22;6486;51.034;5.262;2022-08-21T09:27:52;23.90;57.60
12839;DHT22;6486;51.034;5.262;2022-08-21T09:30:24;23.90;57.40
12839;DHT22;6486;51.034;5.262;2022-08-21T09:32:50;24.00;57.20
12839;DHT22;6486;51.034;5.262;2022-08-21T09:35:19;24.10;57.00
12839;DHT22;6486;51.034;5.262;2022-08-21T09:38:01;24.20;56.80
12839;DHT22;6486;51.034;5.262;2022-08-21T09:40:46;24.30;56.70
12839;DHT22;6486;51.034;5.262;2022-08-21T09:43:23;24.50;56.50
12839;DHT22;6486;51.034;5.262;2022-08-21T09:46:11;24.70;56.10
12839;DHT22;6486;51.034;5.262;2022-08-21T09:48:48;24.90;55.90
12839;DHT22;6486;51.034;5.262;2022-08-21T09:51:36;25.10;55.60
12839;DHT22;6486;51.034;5.262;2022-08-21T09:56:36;25.50;54.80
12839;DHT22;6486;51.034;5.262;2022-08-21T10:01:56;25.70;54.20
12839;DHT22;6486;51.034;5.262;2022-08-21T10:04:29;25.60;54.20
12839;DHT22;6486;51.034;5.262;2022-08-21T10:07:05;25.70;54.10
12839;DHT22;6486;51.034;5.262;2022-08-21T10:09:31;25.70;53.60
12839;DHT22;6486;51.034;5.262;2022-08-21T10:25:55;26.10;52.40
12839;DHT22;6486;51.034;5.262;2022-08-21T10:29:03;26.30;52.20
12839;DHT22;6486;51.034;5.262;2022-08-21T10:31:38;26.50;51.70
12839;DHT22;6486;51.034;5.262;2022-08-21T10:34:13;26.80;50.80
12839;DHT22;6486;51.034;5.262;2022-08-21T10:42:35;26.40;51.10
12839;DHT22;6486;51.034;5.262;2022-08-21T10:45:14;26.20;51.30
12839;DHT22;6486;51.034;5.262;2022-08-21T10:47:47;26.10;51.60
12839;DHT22;6486;51.034;5.262;2022-08-21T10:55:41;25.90;51.50
12839;DHT22;6486;51.034;5.262;2022-08-21T10:58:28;25.80;51.70
12839;DHT22;6486;51.034;5.262;2022-08-21T11:01:10;25.80;51.90
12839;DHT22;6486;51.034;5.262;2022-08-21T11:04:19;25.90;51.60
12839;DHT22;6486;51.034;5.262;2022-08-21T11:07:07;25.90;51.70
12839;DHT22;6486;51.034;5.262;2022-08-21T11:09:36;26.00;51.70
12839;DHT22;6486;51.034;5.262;2022-08-21T11:12:46;26.20;50.90
12839;DHT22;6486;51.034;5.262;2022-08-21T11:18:38;26.80;50.30
12839;DHT22;6486;51.034;5.262;2022-08-21T11:21:20;27.20;50.20
12839;DHT22;6486;51.034;5.262;2022-08-21T11:27:01;27.60;48.60
12839;DHT22;6486;51.034;5.262;2022-08-21T11:29:38;27.60;48.70
12839;DHT22;6486;51.034;5.262;2022-08-21T11:34:54;27.50;48.80
12839;DHT22;6486;51.034;5.262;2022-08-21T11:43:09;27.60;48.70
12839;DHT22;6486;51.034;5.262;2022-08-21T11:45:49;27.80;48.20
12839;DHT22;6486;51.034;5.262;2022-08-21T11:50:44;27.90;48.00
12839;DHT22;6486;51.034;5.262;2022-08-21T11:55:48;28.00;47.80
12839;DHT22;6486;51.034;5.262;2022-08-21T11:58:22;28.10;47.00
12839;DHT22;6486;51.034;5.262;2022-08-21T12:00:57;28.30;46.90
12839;DHT22;6486;51.034;5.262;2022-08-21T12:03:37;28.60;46.40
12839;DHT22;6486;51.034;5.262;2022-08-21T12:06:10;28.60;46.40
12839;DHT22;6486;51.034;5.262;2022-08-21T12:08:39;28.50;46.40
12839;DHT22;6486;51.034;5.262;2022-08-21T12:13:54;28.00;46.60
12839;DHT22;6486;51.034;5.262;2022-08-21T12:16:36;27.90;46.70
12839;DHT22;6486;51.034;5.262;2022-08-21T12:26:55;27.90;46.10
12839;DHT22;6486;51.034;5.262;2022-08-21T12:34:42;28.00;45.70
12839;DHT22;6486;51.034;5.262;2022-08-21T12:39:58;27.80;45.70
12839;DHT22;6486;51.034;5.262;2022-08-21T12:45:00;28.20;45.50
12839;DHT22;6486;51.034;5.262;2022-08-21T12:47:33;28.30;45.20
12839;DHT22;6486;51.034;5.262;2022-08-21T12:50:08;28.20;45.20
12839;DHT22;6486;51.034;5.262;2022-08-21T12:52:48;28.30;45.40
12839;DHT22;6486;51.034;5.262;2022-08-21T12:55:28;28.50;44.60
12839;DHT22;6486;51.034;5.262;2022-08-21T12:57:54;28.70;43.10
12839;DHT22;6486;51.034;5.262;2022-08-21T13:00:23;28.70;42.90
12839;DHT22;6486;51.034;5.262;2022-08-21T13:02:50;28.50;43.00
12839;DHT22;6486;51.034;5.262;2022-08-21T13:05:29;28.30;43.40
12839;DHT22;6486;51.034;5.262;2022-08-21T13:07:55;28.30;43.50
12839;DHT22;6486;51.034;5.262;2022-08-21T13:10:29;28.50;43.90
12839;DHT22;6486;51.034;5.262;2022-08-21T13:12:59;28.40;43.60
12839;DHT22;6486;51.034;5.262;2022-08-21T13:15:30;28.30;43.60
12839;DHT22;6486;51.034;5.262;2022-08-21T13:17:57;28.10;43.70
12839;DHT22;6486;51.034;5.262;2022-08-21T13:20:35;27.90;43.80
12839;DHT22;6486;51.034;5.262;2022-08-21T13:23:03;27.70;44.00
12839;DHT22;6486;51.034;5.262;2022-08-21T13:25:36;27.90;44.10
12839;DHT22;6486;51.034;5.262;2022-08-21T13:28:08;27.90;44.10
12839;DHT22;6486;51.034;5.262;2022-08-21T13:30:37;27.90;43.80
12839;DHT22;6486;51.034;5.262;2022-08-21T13:33:05;27.90;44.00
12839;DHT22;6486;51.034;5.262;2022-08-21T13:35:44;28.00;43.90
12839;DHT22;6486;51.034;5.262;2022-08-21T13:38:11;28.20;43.60
12839;DHT22;6486;51.034;5.262;2022-08-21T13:40:48;28.30;43.30
12839;DHT22;6486;51.034;5.262;2022-08-21T13:43:18;28.20;42.60
12839;DHT22;6486;51.034;5.262;2022-08-21T13:45:51;28.10;43.00
12839;DHT22;6486;51.034;5.262;2022-08-21T13:48:17;28.00;42.90
12839;DHT22;6486;51.034;5.262;2022-08-21T13:50:42;27.90;43.00
12839;DHT22;6486;51.034;5.262;2022-08-21T13:55:48;28.20;43.00
12839;DHT22;6486;51.034;5.262;2022-08-21T13:58:24;28.30;43.00
12839;DHT22;6486;51.034;5.262;2022-08-21T14:00:52;28.50;42.70
12839;DHT22;6486;51.034;5.262;2022-08-21T14:03:35;28.60;42.50
12839;DHT22;6486;51.034;5.262;2022-08-21T14:06:18;28.60;42.10
12839;DHT22;6486;51.034;5.262;2022-08-21T14:08:50;28.50;41.80
12839;DHT22;6486;51.034;5.262;2022-08-21T14:11:17;28.40;41.80
12839;DHT22;6486;51.034;5.262;2022-08-21T14:13:51;28.40;42.00
12839;DHT22;6486;51.034;5.262;2022-08-21T14:16:27;28.40;42.10
12839;DHT22;6486;51.034;5.262;2022-08-21T14:21:36;28.40;42.00
12839;DHT22;6486;51.034;5.262;2022-08-21T14:24:24;28.40;42.10
12839;DHT22;6486;51.034;5.262;2022-08-21T14:27:07;28.40;42.40
12839;DHT22;6486;51.034;5.262;2022-08-21T14:29:38;28.40;42.60
12839;DHT22;6486;51.034;5.262;2022-08-21T14:32:13;28.40;42.80
12839;DHT22;6486;51.034;5.262;2022-08-21T14:34:39;28.40;42.80
12839;DHT22;6486;51.034;5.262;2022-08-21T14:37:05;28.40;42.60
12839;DHT22;6486;51.034;5.262;2022-08-21T14:39:31;28.60;42.50
12839;DHT22;6486;51.034;5.262;2022-08-21T14:41:58;28.60;42.70
12839;DHT22;6486;51.034;5.262;2022-08-21T14:44:24;28.50;42.80
12839;DHT22;6486;51.034;5.262;2022-08-21T14:46:49;28.50;43.00
12839;DHT22;6486;51.034;5.262;2022-08-21T14:49:16;28.50;43.20
12839;DHT22;6486;51.034;5.262;2022-08-21T14:51:42;28.70;43.30
12839;DHT22;6486;51.034;5.262;2022-08-21T14:54:07;29.10;42.90
12839;DHT22;6486;51.034;5.262;2022-08-21T14:56:34;29.40;42.80
12839;DHT22;6486;51.034;5.262;2022-08-21T14:59:06;29.50;42.60
12839;DHT22;6486;51.034;5.262;2022-08-21T15:01:34;29.40;41.90
12839;DHT22;6486;51.034;5.262;2022-08-21T15:04:00;29.30;41.90
12839;DHT22;6486;51.034;5.262;2022-08-21T15:06:26;29.20;41.70
12839;DHT22;6486;51.034;5.262;2022-08-21T15:08:51;29.10;41.60
12839;DHT22;6486;51.034;5.262;2022-08-21T15:11:19;29.10;41.70
12839;DHT22;6486;51.034;5.262;2022-08-21T15:13:47;29.00;41.70
12839;DHT22;6486;51.034;5.262;2022-08-21T15:16:15;28.90;41.80
12839;DHT22;6486;51.034;5.262;2022-08-21T15:18:40;29.00;41.80
12839;DHT22;6486;51.034;5.262;2022-08-21T15:21:07;29.20;42.00
12839;DHT22;6486;51.034;5.262;2022-08-21T15:23:33;29.20;42.10
12839;DHT22;6486;51.034;5.262;2022-08-21T15:25:59;29.10;42.60
12839;DHT22;6486;51.034;5.262;2022-08-21T15:28:24;29.00;42.10
12839;DHT22;6486;51.034;5.262;2022-08-21T15:30:51;28.90;42.00
12839;DHT22;6486;51.034;5.262;2022-08-21T15:33:17;28.80;42.00
12839;DHT22;6486;51.034;5.262;2022-08-21T15:35:43;28.70;42.20
12839;DHT22;6486;51.034;5.262;2022-08-21T15:38:11;28.60;42.40
12839;DHT22;6486;51.034;5.262;2022-08-21T15:40:38;28.60;42.50
12839;DHT22;6486;51.034;5.262;2022-08-21T15:43:05;28.50;42.30
12839;DHT22;6486;51.034;5.262;2022-08-21T15:45:31;28.50;42.40
12839;DHT22;6486;51.034;5.262;2022-08-21T15:47:58;28.50;42.30
12839;DHT22;6486;51.034;5.262;2022-08-21T15:50:24;28.50;42.30
12839;DHT22;6486;51.034;5.262;2022-08-21T15:52:50;28.50;42.70
12839;DHT22;6486;51.034;5.262;2022-08-21T15:55:16;28.40;42.60
12839;DHT22;6486;51.034;5.262;2022-08-21T15:57:47;28.40;42.60
12839;DHT22;6486;51.034;5.262;2022-08-21T16:00:22;28.30;42.50
12839;DHT22;6486;51.034;5.262;2022-08-21T16:02:51;28.30;42.60
12839;DHT22;6486;51.034;5.262;2022-08-21T16:05:17;28.20;42.70
12839;DHT22;6486;51.034;5.262;2022-08-21T16:07:45;28.20;42.80
12839;DHT22;6486;51.034;5.262;2022-08-21T16:10:12;28.10;42.60
12839;DHT22;6486;51.034;5.262;2022-08-21T16:12:42;27.90;42.60
12839;DHT22;6486;51.034;5.262;2022-08-21T16:15:11;27.70;42.80
12839;DHT22;6486;51.034;5.262;2022-08-21T16:17:39;27.50;43.10
12839;DHT22;6486;51.034;5.262;2022-08-21T16:20:08;27.40;43.10
12839;DHT22;6486;51.034;5.262;2022-08-21T16:22:35;27.20;43.20
12839;DHT22;6486;51.034;5.262;2022-08-21T16:25:01;27.20;43.40
12839;DHT22;6486;51.034;5.262;2022-08-21T16:27:26;27.10;43.10
12839;DHT22;6486;51.034;5.262;2022-08-21T16:29:52;26.90;43.10
12839;DHT22;6486;51.034;5.262;2022-08-21T16:32:18;26.80;43.30
12839;DHT22;6486;51.034;5.262;2022-08-21T16:34:47;26.70;43.30
12839;DHT22;6486;51.034;5.262;2022-08-21T16:37:15;26.60;43.30
12839;DHT22;6486;51.034;5.262;2022-08-21T16:39:41;26.50;43.40
12839;DHT22;6486;51.034;5.262;2022-08-21T16:42:10;26.50;43.70
12839;DHT22;6486;51.034;5.262;2022-08-21T16:44:37;26.50;43.90
12839;DHT22;6486;51.034;5.262;2022-08-21T16:47:03;26.40;43.80
12839;DHT22;6486;51.034;5.262;2022-08-21T16:49:29;26.40;44.00
12839;DHT22;6486;51.034;5.262;2022-08-21T16:51:56;26.40;44.20
12839;DHT22;6486;51.034;5.262;2022-08-21T16:54:22;26.30;44.20
12839;DHT22;6486;51.034;5.262;2022-08-21T16:56:48;26.30;44.60
12839;DHT22;6486;51.034;5.262;2022-08-21T16:59:15;26.30;44.60
12839;DHT22;6486;51.034;5.262;2022-08-21T17:01:40;26.20;44.40
12839;DHT22;6486;51.034;5.262;2022-08-21T17:04:06;26.20;44.50
12839;DHT22;6486;51.034;5.262;2022-08-21T17:06:32;26.20;44.60
12839;DHT22;6486;51.034;5.262;2022-08-21T17:08:59;26.20;44.80
12839;DHT22;6486;51.034;5.262;2022-08-21T17:11:37;26.20;45.20
12839;DHT22;6486;51.034;5.262;2022-08-21T17:14:07;26.20;45.00
12839;DHT22;6486;51.034;5.262;2022-08-21T17:16:33;26.20;45.10
12839;DHT22;6486;51.034;5.262;2022-08-21T17:18:59;26.10;45.00
12839;DHT22;6486;51.034;5.262;2022-08-21T17:21:25;26.00;45.00
12839;DHT22;6486;51.034;5.262;2022-08-21T17:23:51;26.00;45.50
12839;DHT22;6486;51.034;5.262;2022-08-21T17:26:17;26.00;46.10
12839;DHT22;6486;51.034;5.262;2022-08-21T17:28:45;26.00;46.50